KERO2: Robert S. Kerr Lock & Dam & Reservoir (L&D 15)

Data processed at Mon May 25 2020 23:15


All information presented herein is the property of the government of the United States of America and may be revised or deleted at any time without prior notice.
Dissemination of this information without the expressed written consent of the Public Affairs Office, Tulsa District U.S. Army Corps of Engineers is strictly prohibited.
These data are gathered electronically and, as presented, have not undergone any form of quality control. These data are not guaranteed to be valid or correct.
Go to home page.
Go to station list.
Go to home page.

Upstream stations:

Downstream station:
Previous Day
Next Day
Current Day
    
SHEF ID:       KERO2     RS Kerr LD15
STATION TYPE:  NAVIGATION LOCK
Navigation Pool:  Bottom =   458.00, Top =   460.00

               PRECIP ELEVATION   STORAGE   TW-ELEV    INFLOW   RELEASE  AIR-TEMP  WIND-DIRWIND-SPEED REL-HUMID SOLAR-RAD   VOLTAGE  BAT-LOAD
                   in        ft     ac-ft        ft       cfs       cfs         F       deg       mph         %      W/m2      volt      volt
              Ccp-Rev   Ccp-Rev   Ccp-Rev   Ccp-Rev  Rev-Regi  Rev-Regi   Ccp-Rev   Ccp-Rev   Ccp-Rev   Ccp-Rev   Ccp-Rev   Ccp-Rev   Ccp-Rev
(US/Central)
05/25 00:00      0.00    459.59    508019    424.27    149564    140111     70.12    115.60      1.45     89.33      0.00     13.40     13.12
05/25 01:00      0.00    459.64    510174    424.24    141197    140000     69.91    120.60      1.55     93.36      0.00     13.42     13.12
05/25 02:00      0.00    459.63    509743    424.24    153691    140550     68.47     28.10      1.37     97.33      0.00     13.40     13.12
05/25 03:00      0.02    459.60    508450    424.25    142256    140000     67.93      3.70      2.32    100.26      0.00     13.40     13.12
05/25 04:00      0.17    459.65    510605    424.28    140170    140300     66.49    267.00      1.69    100.20      0.00     13.40     13.12
05/25 05:00      0.01    459.61    508881    424.26    136048    140000     67.15     14.40      3.13    100.20      0.00     13.40     13.12
05/25 06:00      0.01    459.64    510174    424.24    135938    140250     67.48     57.40      0.87    100.13      0.00     13.39     13.12
05/25 07:00      0.00    459.59    508019    424.25    126551    140000     67.95    172.10      1.46    100.15     15.00     13.39     13.12
05/25 08:00      0.00    459.56    506726    424.24    128577    140000     68.58     54.60      0.83    100.13     69.00     13.40     13.12
05/25 09:00      0.00    459.52    505002    424.23    120233    140000     69.37     69.70      1.50    100.15    135.00     13.39     13.12
05/25 10:00      0.00    459.50    504140    424.25    130663    140000     70.79     57.80      2.37    100.15    236.00     13.40     13.12
05/25 11:00      0.00    459.45    501985    424.24    131706    140250     72.88     61.20      1.18    100.20    325.00     13.40     13.12
05/25 12:00      0.00    459.50    504140    424.23    135878    140000     74.30     75.00      0.98    100.13    275.00     13.42     13.12
05/25 13:00      0.01    459.48    503278    424.25    139067    140000     73.09     91.90      1.51    100.20    199.00     13.40     13.12
05/25 14:00      0.02    459.48    503278    424.25    145325    140300     73.63     44.30      1.85    100.13    510.00     13.39     13.12
05/25 15:00      0.00    459.49    503709    424.26    133802    140000     75.63     23.90      4.54    100.21    477.00     13.40     13.12
05/25 16:00      0.00    459.50    504140    424.25    151533    140000     76.17      4.30      5.35    100.26    410.00     13.40     13.12
05/25 17:00      0.00    459.44    501554    424.23    152626    140000     75.96     27.40      3.93    100.26    151.00     13.40     13.12
05/25 18:00      0.06    459.59    508019    424.22    157841    140250     73.98    341.70      2.38    100.26     23.00     13.40     13.12
05/25 19:00      0.68    459.60    508450    424.30    159927    140300     67.37    205.90      8.81     99.95      2.00     13.40     13.12
05/25 20:00      0.15    459.66    511036    424.29    170358    140000     67.05     26.20      0.20     99.89      6.00     13.39     13.12
05/25 21:00      0.07    459.69    512329    424.36    157841    140000     67.50     19.70      2.19     99.96      1.00     13.40     13.12
05/25 22:00      0.11    459.73    514053    424.64    161963    140000     66.72    345.90      2.00    100.02      0.00     13.40     13.12
05/25 23:00      ----      ----      ----      ----      ----      ----      ----      ----      ----      ----      ----      ----      ----